Portada
METAR-TAF:

METAR-TAF

Aeroports :

Hermosillo, Mèxic

latitud: 29-04N, longitud: 110-57W, altitud: 211 m

Observació

L'informe es va fer fa 44 minuts, a les 20:40 UTC
Vent 6 kt del Sud/Sud-Oest
Temperatura 39°C
Humitat 11%
Pressió 1010 hPa
Visibilitat: 16.1 km
Escasses núvols a una alçada de 20000 ft

METAR: MMHO 262040Z 21006KT 10SM FEW200 39/03 A2982 RMK SLP/// 57018 907 8/008 HZY

Hora: 14:24 (21:24 UTC)

Pronòstic

L'informe es va fer fa 4 hores i 34 minuts, a les 16:50 UTC
Pronòstic vàlid del 26 a les 18 UTC al 27 a les 18 UTC
Vent 10 kt del Oest/Sud-Oest
Visibilitat: 10 km
Núvols disperses a una alçada de 20000 ft
A partir de les 27 a les 0400 UTC
Vent 5 kt del Oest/Sud-Oest
Visibilitat: 10 km
Núvols disperses a una alçada de 20000 ft
A partir de les 27 a les 1800 UTC
Vent 10 kt del Oest/Sud-Oest
Visibilitat: 10 km
Núvols disperses a una alçada de 20000 ft

TAF: MMHO 261650Z 2618/2718 24010KT P6SM SCT200 FM270400 24005KT P6SM SCT200 FM271800 24010KT P6SM SCT200

Observacions i pronòstics meteorològics de més de 4000 aeroports (METAR i TAF).

Les estacions disponibles són els punts grocs i vermells al mapa.

Posi el ratolí al punt desitjat per veure el nom de l'estació.

Feu clic per veure les observacions i els pronòstics meteorològics.

Per canviar el mapa: feu clic els botons verds amb una creu de color negre per apropar; al botó verd amb un guió per allunyar la imatge; o en les fletxes verdes per a mapes adjacents.


METAR-TAF: